createdAt,value
2018-09-26T00:00:43.874Z,6.99
2018-09-26T00:03:20.095Z,6.90
2018-09-26T00:05:48.877Z,6.89
2018-09-26T00:08:17.683Z,6.81
2018-09-26T00:10:46.252Z,6.81
2018-09-26T00:13:14.789Z,6.72
2018-09-26T00:15:43.198Z,6.65
2018-09-26T00:18:11.626Z,6.66
2018-09-26T00:20:40.088Z,6.61
2018-09-26T00:23:08.638Z,6.55
2018-09-26T00:25:37.050Z,6.61
2018-09-26T00:28:05.821Z,6.57
2018-09-26T00:30:34.232Z,6.61
2018-09-26T00:33:03.140Z,6.55
2018-09-26T00:35:31.513Z,6.53
2018-09-26T00:38:00.032Z,6.66
2018-09-26T00:40:28.434Z,6.58
2018-09-26T00:42:57.125Z,6.61
2018-09-26T00:45:25.877Z,6.51
2018-09-26T00:47:54.302Z,6.43
2018-09-26T00:50:22.697Z,6.36
2018-09-26T00:52:51.129Z,6.33
2018-09-26T00:55:19.570Z,6.31
2018-09-26T00:57:48.045Z,6.23
2018-09-26T01:00:16.985Z,6.36
2018-09-26T01:02:45.421Z,6.41
2018-09-26T01:05:14.690Z,6.41
2018-09-26T01:07:43.133Z,6.41
2018-09-26T01:10:11.878Z,6.37
2018-09-26T01:12:40.562Z,6.42
2018-09-26T01:15:09.288Z,6.53
2018-09-26T01:17:37.794Z,6.50
2018-09-26T01:20:06.632Z,6.54
2018-09-26T01:22:35.098Z,6.55
2018-09-26T01:25:03.906Z,6.54
2018-09-26T01:27:33.994Z,6.51
2018-09-26T01:30:04.106Z,6.49
2018-09-26T01:32:32.893Z,6.53
2018-09-26T01:35:01.925Z,6.55
2018-09-26T01:37:30.751Z,6.55
2018-09-26T01:39:59.790Z,6.48
2018-09-26T01:42:28.769Z,6.43
2018-09-26T01:44:57.347Z,6.36
2018-09-26T01:47:26.222Z,6.32
2018-09-26T01:49:54.769Z,6.22
2018-09-26T01:52:23.510Z,6.19
2018-09-26T01:54:52.052Z,6.10
2018-09-26T01:57:20.611Z,6.05
2018-09-26T01:59:49.120Z,6.03
2018-09-26T02:02:17.829Z,6.03
2018-09-26T02:04:46.288Z,6.00
2018-09-26T02:07:15.068Z,5.95
2018-09-26T02:09:43.732Z,5.91
2018-09-26T02:12:12.145Z,5.93
2018-09-26T02:14:41.013Z,5.87
2018-09-26T02:17:09.667Z,5.66
2018-09-26T02:19:38.541Z,5.80
2018-09-26T02:22:07.316Z,5.80
2018-09-26T02:24:36.092Z,5.93
2018-09-26T02:27:04.859Z,5.89
2018-09-26T02:29:33.377Z,5.80
2018-09-26T02:32:02.602Z,5.77
2018-09-26T02:34:31.046Z,5.79
2018-09-26T02:37:00.023Z,5.84
2018-09-26T02:39:28.917Z,5.85
2018-09-26T02:41:58.033Z,5.90
2018-09-26T02:44:26.474Z,5.89
2018-09-26T02:46:54.910Z,5.94
2018-09-26T02:49:23.373Z,5.97
2018-09-26T02:51:51.777Z,5.94
2018-09-26T02:54:20.229Z,5.88
2018-09-26T02:56:48.958Z,5.79
2018-09-26T02:59:17.401Z,5.84
2018-09-26T03:01:45.794Z,5.90
2018-09-26T03:04:14.252Z,5.80
2018-09-26T03:06:43.038Z,5.76
2018-09-26T03:09:11.839Z,5.75
2018-09-26T03:11:40.755Z,5.75
2018-09-26T03:14:09.466Z,5.69
2018-09-26T03:16:38.109Z,5.65
2018-09-26T03:19:07.305Z,5.71
2018-09-26T03:21:36.090Z,5.68
2018-09-26T03:24:04.659Z,5.62
2018-09-26T03:26:33.045Z,5.63
2018-09-26T03:29:01.470Z,5.62
2018-09-26T03:31:29.881Z,5.65
2018-09-26T03:33:58.333Z,5.73
2018-09-26T03:36:26.743Z,5.70
2018-09-26T03:38:55.199Z,5.66
2018-09-26T03:41:23.679Z,5.63
2018-09-26T03:43:52.077Z,5.58
2018-09-26T03:46:20.517Z,5.54
2018-09-26T03:48:48.929Z,5.49
2018-09-26T03:51:17.893Z,5.44
2018-09-26T03:53:46.633Z,5.36
2018-09-26T03:56:15.340Z,5.29
2018-09-26T03:58:43.809Z,5.27
2018-09-26T04:01:12.758Z,5.24
2018-09-26T04:03:41.581Z,5.21
2018-09-26T04:06:10.693Z,5.16
2018-09-26T04:08:39.717Z,5.17
2018-09-26T04:11:08.233Z,5.16
2018-09-26T04:13:37.002Z,5.18
2018-09-26T04:16:05.506Z,5.15
2018-09-26T04:18:33.909Z,5.18
2018-09-26T04:21:02.685Z,5.22
2018-09-26T04:23:31.202Z,5.22
2018-09-26T04:25:59.637Z,5.18
2018-09-26T04:28:28.028Z,5.23
2018-09-26T04:30:56.452Z,5.20
2018-09-26T04:33:24.954Z,5.20
2018-09-26T04:35:53.362Z,5.29
2018-09-26T04:38:21.885Z,5.24
2018-09-26T04:40:50.303Z,5.18
2018-09-26T04:43:18.772Z,5.15
2018-09-26T04:45:47.217Z,5.20
2018-09-26T04:48:15.636Z,5.13
2018-09-26T04:50:44.108Z,5.22
2018-09-26T04:53:12.503Z,5.23
2018-09-26T04:55:40.950Z,5.25
2018-09-26T04:58:09.407Z,5.21
2018-09-26T05:00:37.798Z,5.22
2018-09-26T05:03:06.218Z,5.19
2018-09-26T05:05:34.699Z,5.15
2018-09-26T05:08:03.105Z,5.13
2018-09-26T05:10:31.599Z,5.14
2018-09-26T05:13:00.031Z,5.17
2018-09-26T05:15:28.990Z,5.18
2018-09-26T05:17:57.741Z,5.19
2018-09-26T05:20:26.312Z,5.21
2018-09-26T05:22:54.787Z,5.20
2018-09-26T05:25:23.649Z,5.18
2018-09-26T05:27:52.661Z,5.21
2018-09-26T05:30:21.618Z,5.23
2018-09-26T05:32:50.194Z,5.25
2018-09-26T05:35:18.717Z,5.24
2018-09-26T05:37:47.367Z,5.31
2018-09-26T05:40:16.223Z,5.43
2018-09-26T05:42:44.646Z,5.42
2018-09-26T05:45:13.109Z,5.52
2018-09-26T05:47:41.520Z,5.53
2018-09-26T05:50:10.224Z,5.58
2018-09-26T05:52:38.631Z,5.58
2018-09-26T05:55:07.449Z,5.63
2018-09-26T05:57:35.806Z,5.64
2018-09-26T06:00:04.264Z,5.73
2018-09-26T06:02:33.124Z,5.75
2018-09-26T06:05:01.554Z,5.82
2018-09-26T06:07:30.382Z,5.82
2018-09-26T06:09:59.405Z,5.90
2018-09-26T06:12:28.282Z,6.03
2018-09-26T06:14:56.674Z,6.09
2018-09-26T06:17:25.118Z,6.17
2018-09-26T06:19:53.576Z,6.22
2018-09-26T06:22:22.976Z,6.31
2018-09-26T06:24:51.706Z,6.37
2018-09-26T06:27:20.634Z,6.41
2018-09-26T06:29:49.166Z,6.48
2018-09-26T06:32:18.001Z,6.59
2018-09-26T06:34:46.528Z,6.65
2018-09-26T06:37:15.114Z,6.67
2018-09-26T06:39:43.733Z,6.70
2018-09-26T06:42:12.359Z,6.68
2018-09-26T06:44:40.931Z,6.82
2018-09-26T06:47:09.548Z,6.90
2018-09-26T06:49:38.276Z,6.98
2018-09-26T06:52:06.826Z,7.15
2018-09-26T06:54:35.217Z,7.22
2018-09-26T06:57:04.003Z,7.35
2018-09-26T06:59:32.653Z,7.50
2018-09-26T07:02:01.358Z,7.69
2018-09-26T07:04:29.846Z,7.86
2018-09-26T07:06:58.615Z,8.08
2018-09-26T07:09:27.235Z,8.04
2018-09-26T07:11:55.850Z,8.20
2018-09-26T07:14:24.319Z,8.40
2018-09-26T07:16:52.777Z,8.55
2018-09-26T07:19:21.630Z,8.58
2018-09-26T07:21:50.073Z,8.72
2018-09-26T07:24:18.490Z,8.71
2018-09-26T07:26:46.958Z,8.88
2018-09-26T07:29:15.485Z,8.96
2018-09-26T07:31:44.026Z,8.90
2018-09-26T07:34:12.750Z,9.02
2018-09-26T07:36:41.258Z,8.99
2018-09-26T07:39:11.817Z,9.04
2018-09-26T07:41:40.146Z,9.12
2018-09-26T07:44:09.046Z,9.24
2018-09-26T07:46:37.465Z,9.19
2018-09-26T07:49:06.201Z,9.41
2018-09-26T07:51:34.730Z,9.51
2018-09-26T07:54:03.371Z,9.64
2018-09-26T07:56:31.800Z,9.79
2018-09-26T07:59:00.265Z,10.05
2018-09-26T08:01:28.708Z,10.18
2018-09-26T08:03:57.129Z,10.23
2018-09-26T08:06:25.582Z,10.37
2018-09-26T08:08:54.061Z,10.46
2018-09-26T08:11:22.560Z,10.53
2018-09-26T08:13:50.940Z,10.62
2018-09-26T08:16:19.404Z,10.69
2018-09-26T08:18:47.817Z,10.64
2018-09-26T08:21:16.285Z,10.86
2018-09-26T08:23:44.746Z,11.00
2018-09-26T08:26:13.172Z,11.09
2018-09-26T08:28:41.589Z,11.21
2018-09-26T08:31:10.094Z,11.27
2018-09-26T08:33:38.533Z,11.32
2018-09-26T08:36:07.102Z,11.46
2018-09-26T08:38:35.538Z,11.46
2018-09-26T08:41:03.921Z,11.61
2018-09-26T08:43:32.352Z,11.85
2018-09-26T08:46:00.754Z,11.83
2018-09-26T08:48:29.230Z,12.00
2018-09-26T08:50:57.722Z,12.17
2018-09-26T08:53:26.238Z,12.37
2018-09-26T08:55:54.669Z,12.48
2018-09-26T08:58:23.065Z,12.63
2018-09-26T09:00:52.860Z,12.50
2018-09-26T09:03:21.581Z,12.64
2018-09-26T09:05:50.504Z,12.77
2018-09-26T09:08:18.929Z,12.62
2018-09-26T09:10:47.362Z,12.57
2018-09-26T09:13:15.807Z,12.48
2018-09-26T09:15:44.208Z,12.44
2018-09-26T09:18:12.630Z,12.50
2018-09-26T09:20:41.011Z,12.58
2018-09-26T09:23:09.494Z,12.50
2018-09-26T09:25:37.890Z,12.71
2018-09-26T09:28:06.399Z,12.81
2018-09-26T09:30:34.829Z,12.80
2018-09-26T09:33:03.262Z,12.97
2018-09-26T09:35:31.741Z,13.09
2018-09-26T09:38:00.174Z,13.15
2018-09-26T09:40:28.571Z,13.18
2018-09-26T09:42:56.977Z,13.21
2018-09-26T09:45:25.350Z,13.27
2018-09-26T09:47:53.773Z,13.34
2018-09-26T09:50:22.373Z,13.53
2018-09-26T09:52:50.728Z,13.60
2018-09-26T09:55:19.174Z,13.83
2018-09-26T09:57:48.613Z,13.94
2018-09-26T10:00:17.057Z,13.90
2018-09-26T10:02:45.569Z,14.07
2018-09-26T10:05:13.937Z,14.01
2018-09-26T10:07:42.333Z,14.12
2018-09-26T10:10:10.729Z,14.05
2018-09-26T10:12:39.147Z,14.23
2018-09-26T10:15:07.590Z,14.45
2018-09-26T10:17:36.063Z,14.71
2018-09-26T10:20:04.529Z,14.82
2018-09-26T10:22:32.927Z,14.93
2018-09-26T10:25:01.334Z,14.89
2018-09-26T10:27:29.737Z,14.67
2018-09-26T10:29:58.156Z,14.78
2018-09-26T10:32:26.614Z,14.95
2018-09-26T10:34:55.445Z,14.71
2018-09-26T10:37:23.866Z,14.61
2018-09-26T10:39:52.271Z,14.38
2018-09-26T10:42:20.766Z,14.36
2018-09-26T10:44:49.166Z,14.38
2018-09-26T10:47:17.567Z,14.48
2018-09-26T10:49:45.961Z,14.56
2018-09-26T10:52:14.428Z,14.71
2018-09-26T10:54:42.837Z,14.64
2018-09-26T10:57:11.217Z,14.62
2018-09-26T10:59:39.597Z,14.55
2018-09-26T11:02:08.033Z,14.73
2018-09-26T11:04:36.427Z,15.02
2018-09-26T11:07:04.846Z,15.20
2018-09-26T11:09:33.281Z,15.39
2018-09-26T11:12:01.717Z,15.68
2018-09-26T11:14:30.140Z,15.72
2018-09-26T11:16:58.554Z,15.96
2018-09-26T11:19:27.000Z,16.05
2018-09-26T11:21:55.454Z,16.30
2018-09-26T11:24:23.976Z,16.18
2018-09-26T11:26:52.377Z,16.35
2018-09-26T11:29:20.769Z,16.55
2018-09-26T11:31:49.165Z,16.20
2018-09-26T11:34:17.642Z,16.23
2018-09-26T11:36:46.026Z,16.22
2018-09-26T11:39:14.483Z,16.52
2018-09-26T11:41:42.882Z,16.75
2018-09-26T11:44:11.325Z,16.87
2018-09-26T11:46:39.805Z,16.93
2018-09-26T11:49:08.235Z,17.13
2018-09-26T11:51:36.707Z,17.23
2018-09-26T11:54:05.517Z,17.21
2018-09-26T11:56:33.987Z,17.10
2018-09-26T11:59:02.493Z,17.11
2018-09-26T12:01:30.912Z,16.76
2018-09-26T12:03:59.390Z,16.97
2018-09-26T12:06:27.789Z,17.28
2018-09-26T12:08:56.217Z,17.22
2018-09-26T12:11:24.649Z,17.48
2018-09-26T12:13:53.130Z,17.38
2018-09-26T12:16:21.665Z,17.09
2018-09-26T12:18:50.061Z,17.21
2018-09-26T12:21:30.252Z,17.38
2018-09-26T12:23:47.093Z,17.52
2018-09-26T12:26:15.517Z,17.29
2018-09-26T12:28:44.034Z,17.70
2018-09-26T12:31:12.459Z,17.86
2018-09-26T12:33:40.892Z,17.51
2018-09-26T12:36:09.400Z,17.74
2018-09-26T12:38:37.805Z,18.08
2018-09-26T12:41:06.322Z,18.39
2018-09-26T12:43:34.851Z,18.74
2018-09-26T12:46:03.275Z,18.32
2018-09-26T12:48:31.789Z,18.71
2018-09-26T12:51:00.203Z,18.95
2018-09-26T12:53:28.757Z,19.12
2018-09-26T12:55:57.166Z,19.20
2018-09-26T12:58:25.911Z,19.50
2018-09-26T13:00:54.294Z,19.64
2018-09-26T13:03:22.739Z,19.95
2018-09-26T13:05:51.381Z,20.20
2018-09-26T13:08:19.823Z,21.00
2018-09-26T13:10:48.312Z,21.80
2018-09-26T13:13:16.712Z,23.42
2018-09-26T13:15:45.174Z,24.80
2018-09-26T13:18:13.889Z,25.47
2018-09-26T13:20:42.274Z,25.02
2018-09-26T13:23:10.672Z,25.39
2018-09-26T13:25:39.176Z,25.85
2018-09-26T13:28:07.646Z,25.87
2018-09-26T13:30:36.042Z,27.29
2018-09-26T13:33:04.451Z,27.30
2018-09-26T13:35:32.902Z,27.16
2018-09-26T13:38:01.351Z,27.08
2018-09-26T13:40:30.074Z,26.39
2018-09-26T13:42:58.480Z,26.44
2018-09-26T13:45:26.886Z,25.17
2018-09-26T13:47:55.318Z,25.34
2018-09-26T13:50:23.797Z,25.92
2018-09-26T13:52:52.152Z,25.51
2018-09-26T13:55:20.536Z,26.51
2018-09-26T13:57:49.193Z,27.57
2018-09-26T14:00:18.196Z,27.86
2018-09-26T14:02:47.454Z,27.65
2018-09-26T14:05:16.654Z,28.54
2018-09-26T14:07:45.036Z,27.52
2018-09-26T14:10:13.510Z,28.12
2018-09-26T14:12:41.966Z,27.30
2018-09-26T14:15:17.087Z,26.90
2018-09-26T14:17:46.426Z,26.95
2018-09-26T14:20:31.292Z,28.59
2018-09-26T14:22:59.841Z,29.32
2018-09-26T14:25:28.337Z,29.05
2018-09-26T14:27:56.815Z,28.09
2018-09-26T14:30:25.615Z,28.18
2018-09-26T14:32:54.243Z,29.79
2018-09-26T14:35:22.826Z,29.28
2018-09-26T14:37:51.314Z,26.55
2018-09-26T14:40:19.836Z,27.94
2018-09-26T14:42:48.337Z,28.04
2018-09-26T14:45:16.930Z,26.75
2018-09-26T14:47:45.391Z,27.81
2018-09-26T14:50:14.009Z,27.26
2018-09-26T14:52:42.684Z,26.23
2018-09-26T14:55:11.491Z,26.11
2018-09-26T14:57:40.026Z,26.52
2018-09-26T15:00:09.475Z,25.56
2018-09-26T15:02:38.395Z,25.44
2018-09-26T15:05:07.439Z,25.72
2018-09-26T15:07:36.057Z,26.48
2018-09-26T15:10:04.659Z,26.54
2018-09-26T15:12:33.489Z,26.34
2018-09-26T15:15:02.540Z,25.87
2018-09-26T15:17:31.070Z,25.88
2018-09-26T15:19:59.782Z,26.02
2018-09-26T15:22:28.318Z,26.89
2018-09-26T15:24:56.850Z,26.00
2018-09-26T15:27:25.406Z,25.14
2018-09-26T15:29:53.974Z,25.72
2018-09-26T15:32:22.582Z,25.49
2018-09-26T15:34:51.163Z,27.19
2018-09-26T15:37:19.710Z,26.59
2018-09-26T15:39:48.293Z,26.62
2018-09-26T15:42:17.002Z,26.25
2018-09-26T15:44:45.466Z,25.98
2018-09-26T15:47:14.061Z,26.74
2018-09-26T15:49:42.583Z,26.43
2018-09-26T15:52:11.267Z,26.43
2018-09-26T15:54:39.767Z,25.41
2018-09-26T15:57:08.593Z,25.26
2018-09-26T15:59:37.190Z,25.23
2018-09-26T16:02:05.809Z,24.13
2018-09-26T16:04:37.989Z,22.68
2018-09-26T16:07:06.433Z,22.49
2018-09-26T16:09:34.975Z,22.06
2018-09-26T16:12:03.459Z,21.99
2018-09-26T16:14:31.854Z,21.52
2018-09-26T16:17:00.300Z,21.64
2018-09-26T16:19:28.818Z,21.32
2018-09-26T16:21:57.650Z,21.17
2018-09-26T16:24:26.488Z,21.26
2018-09-26T16:26:54.926Z,21.74
2018-09-26T16:29:23.357Z,22.03
2018-09-26T16:31:51.789Z,22.80
2018-09-26T16:34:20.274Z,23.01
2018-09-26T16:36:48.657Z,22.71
2018-09-26T16:39:17.232Z,22.91
2018-09-26T16:41:45.573Z,22.16
2018-09-26T16:44:14.008Z,21.31
2018-09-26T16:46:42.429Z,20.78
2018-09-26T16:49:10.913Z,19.82
2018-09-26T16:51:39.367Z,19.39
2018-09-26T16:54:07.859Z,18.90
2018-09-26T16:56:36.358Z,18.42
2018-09-26T16:59:04.761Z,17.86
2018-09-26T17:01:33.258Z,17.68
2018-09-26T17:04:01.664Z,17.51
2018-09-26T17:06:30.114Z,17.32
2018-09-26T17:08:58.538Z,17.14
2018-09-26T17:11:26.987Z,16.90
2018-09-26T17:13:55.423Z,16.74
2018-09-26T17:16:23.940Z,16.57
2018-09-26T17:18:52.345Z,16.41
2018-09-26T17:21:21.087Z,16.23
2018-09-26T17:23:49.635Z,16.00
2018-09-26T17:26:18.160Z,15.83
2018-09-26T17:28:46.672Z,15.64
2018-09-26T17:31:15.668Z,15.61
2018-09-26T17:33:44.457Z,15.52
2018-09-26T17:36:12.986Z,15.36
2018-09-26T17:38:42.106Z,15.19
2018-09-26T17:41:10.507Z,15.01
2018-09-26T17:43:39.022Z,14.92
2018-09-26T17:46:09.852Z,14.90
2018-09-26T17:48:44.665Z,14.78
2018-09-26T17:51:14.076Z,14.79
2018-09-26T17:53:44.523Z,14.70
2018-09-26T17:56:12.978Z,14.59
2018-09-26T17:58:41.530Z,14.41
2018-09-26T18:01:10.006Z,14.30
2018-09-26T18:03:38.498Z,14.20
2018-09-26T18:06:06.986Z,14.11
2018-09-26T18:08:35.477Z,14.07
2018-09-26T18:11:03.861Z,13.98
2018-09-26T18:13:32.368Z,13.91
2018-09-26T18:16:00.730Z,13.83
2018-09-26T18:18:29.281Z,13.73
2018-09-26T18:20:57.728Z,13.65
2018-09-26T18:23:26.251Z,13.64
2018-09-26T18:25:54.643Z,13.56
2018-09-26T18:28:23.081Z,13.44
2018-09-26T18:30:51.649Z,13.44
2018-09-26T18:33:20.137Z,13.41
2018-09-26T18:35:48.638Z,13.39
2018-09-26T18:38:17.119Z,13.37
2018-09-26T18:40:45.564Z,13.23
2018-09-26T18:43:14.181Z,13.20
2018-09-26T18:45:46.616Z,13.13
2018-09-26T18:48:16.345Z,13.14
2018-09-26T18:50:44.834Z,13.04
2018-09-26T18:53:13.288Z,12.94
2018-09-26T18:55:41.958Z,12.88
2018-09-26T18:58:10.393Z,12.82
2018-09-26T19:00:40.538Z,12.78
2018-09-26T19:03:09.131Z,12.77
2018-09-26T19:05:40.001Z,12.75
2018-09-26T19:08:08.844Z,12.75
2018-09-26T19:10:37.325Z,12.72
2018-09-26T19:13:05.833Z,12.73
2018-09-26T19:15:34.253Z,12.71
2018-09-26T19:18:02.820Z,12.59
2018-09-26T19:20:32.081Z,12.50
2018-09-26T19:23:00.588Z,12.48
2018-09-26T19:25:29.500Z,12.49
2018-09-26T19:28:00.181Z,12.34
2018-09-26T19:30:31.491Z,12.39
2018-09-26T19:33:04.304Z,12.25
2018-09-26T19:35:47.115Z,12.18
2018-09-26T19:38:26.430Z,12.18
2018-09-26T19:41:00.918Z,12.02
2018-09-26T19:43:32.531Z,11.85
2018-09-26T19:46:02.099Z,11.80
2018-09-26T19:48:33.864Z,11.74
2018-09-26T19:51:09.271Z,11.61
2018-09-26T19:56:21.189Z,11.56
2018-09-26T19:59:01.378Z,11.60
2018-09-26T20:01:35.479Z,11.64
2018-09-26T20:04:13.940Z,11.63
2018-09-26T20:06:43.138Z,11.65
2018-09-26T20:09:14.288Z,11.56
2018-09-26T20:11:48.648Z,11.49
2018-09-26T20:14:19.281Z,11.39
2018-09-26T20:16:51.616Z,11.35
2018-09-26T20:19:21.230Z,11.19
2018-09-26T20:21:50.264Z,11.12
2018-09-26T20:24:24.368Z,11.02
2018-09-26T20:26:52.878Z,10.94
2018-09-26T20:29:21.376Z,11.00
2018-09-26T20:31:49.783Z,10.94
2018-09-26T20:34:18.220Z,11.00
2018-09-26T20:39:37.185Z,10.88
2018-09-26T20:44:51.814Z,10.78
2018-09-26T20:47:21.486Z,10.75
2018-09-26T20:49:52.896Z,10.80
2018-09-26T20:52:23.221Z,10.84
2018-09-26T20:54:53.388Z,10.81
2018-09-26T20:57:47.516Z,10.75
2018-09-26T21:00:16.137Z,10.61
2018-09-26T21:03:00.995Z,10.61
2018-09-26T21:05:29.711Z,10.64
2018-09-26T21:08:14.452Z,10.52
2018-09-26T21:11:04.210Z,10.44
2018-09-26T21:16:35.142Z,10.41
2018-09-26T21:19:03.961Z,10.40
2018-09-26T21:24:44.565Z,10.12
2018-09-26T21:33:03.420Z,10.01
2018-09-26T21:35:36.761Z,10.06
2018-09-26T21:38:18.168Z,10.00
2018-09-26T21:40:53.302Z,9.91
2018-09-26T21:43:25.883Z,9.97
2018-09-26T21:46:00.731Z,9.97
2018-09-26T21:48:31.716Z,10.02
2018-09-26T21:51:01.241Z,10.05
2018-09-26T21:53:35.707Z,9.75
2018-09-26T21:56:04.310Z,9.87
2018-09-26T21:58:32.829Z,9.86
2018-09-26T22:01:12.835Z,9.93
2018-09-26T22:04:03.410Z,9.86
2018-09-26T22:12:30.014Z,9.84
2018-09-26T22:15:06.326Z,9.74
2018-09-26T22:26:16.136Z,9.52
2018-09-26T22:28:44.530Z,9.60
2018-09-26T22:31:28.743Z,9.56
2018-09-26T22:33:57.227Z,9.60
2018-09-26T22:36:25.617Z,9.54
2018-09-26T22:38:54.002Z,9.44
2018-09-26T22:41:22.437Z,9.38
2018-09-26T22:43:50.862Z,9.45
2018-09-26T22:46:19.301Z,9.44
2018-09-26T22:48:47.745Z,9.33
2018-09-26T22:51:16.646Z,9.30
2018-09-26T22:53:45.025Z,9.29
2018-09-26T22:56:13.437Z,9.41
2018-09-26T22:58:41.884Z,9.34
2018-09-26T23:01:10.506Z,9.26
2018-09-26T23:03:38.975Z,9.26
2018-09-26T23:06:07.464Z,9.30
2018-09-26T23:08:36.220Z,9.27
2018-09-26T23:11:04.669Z,9.29
2018-09-26T23:13:33.075Z,9.28
2018-09-26T23:16:01.625Z,9.18
2018-09-26T23:18:30.012Z,9.11
2018-09-26T23:20:58.452Z,9.04
2018-09-26T23:23:26.850Z,9.01
2018-09-26T23:25:55.285Z,9.07
2018-09-26T23:28:23.677Z,9.08
2018-09-26T23:30:52.105Z,8.95
2018-09-26T23:33:20.553Z,8.84
2018-09-26T23:35:49.048Z,8.87
2018-09-26T23:38:17.466Z,8.75
2018-09-26T23:40:45.929Z,8.66
2018-09-26T23:43:14.366Z,8.71
2018-09-26T23:45:42.781Z,8.64
2018-09-26T23:48:11.178Z,8.58
2018-09-26T23:50:39.649Z,8.54
2018-09-26T23:53:08.224Z,8.47
2018-09-26T23:55:36.626Z,8.45
2018-09-26T23:58:05.033Z,8.48
